Time;durP1;ratioP1;P1;durP2;ratioP2;P2;SDS_P1;SDS_P2;PMS_P1;PMS_P2;Temp;Humidity;BMP_temperature;BMP_pressure;BME280_temperature;BME280_humidity;BME280_pressure;Samples;Min_cycle;Max_cycle;Signal;HPM_P1;HPM_P2
2023/02/10 00:00:41;;;;;;;;;;;21.30;48.10;;;;;;1599394;72;1134;-67
2023/02/10 00:02:43;;;;;;;;;;;21.20;47.90;;;;;;1594581;72;761;-67
2023/02/10 00:04:45;;;;;;;;;;;21.20;47.70;;;;;;1596601;72;1945;-67
2023/02/10 00:06:47;;;;;;;;;;;21.30;47.90;;;;;;1604654;74;808;-68
2023/02/10 00:08:49;;;;;;;;;;;21.30;47.70;;;;;;1600299;72;1336;-70
2023/02/10 00:10:51;;;;;;;;;;;21.30;47.70;;;;;;1603559;72;758;-68
2023/02/10 00:12:53;;;;;;;;;;;21.30;47.70;;;;;;1590468;72;800;-67
2023/02/10 00:14:55;;;;;;;;;;;21.30;47.70;;;;;;1602174;72;657;-68
2023/02/10 00:16:56;;;;;;;;;;;21.30;47.60;;;;;;1605735;74;668;-68
2023/02/10 00:18:58;;;;;;;;;;;21.40;47.50;;;;;;1610287;71;1167;-68
2023/02/10 00:21:13;;;;;;;;;;;21.30;47.60;;;;;;1605399;72;662;-68
2023/02/10 00:23:15;;;;;;;;;;;21.20;47.60;;;;;;1598237;72;813;-67
2023/02/10 00:25:17;;;;;;;;;;;21.30;47.60;;;;;;1592573;72;1930;-67
2023/02/10 00:27:22;;;;;;;;;;;21.20;47.50;;;;;;1596784;74;772;-68
2023/02/10 00:29:22;;;;;;;;;;;21.20;47.60;;;;;;1600760;72;1670;-67
2023/02/10 00:31:24;;;;;;;;;;;21.20;47.40;;;;;;1597550;72;1537;-66
2023/02/10 00:33:26;;;;;;;;;;;21.30;47.80;;;;;;1595706;72;786;-68
2023/02/10 00:35:28;;;;;;;;;;;21.20;47.60;;;;;;1604079;72;715;-68
2023/02/10 00:37:30;;;;;;;;;;;21.20;47.60;;;;;;1600574;72;792;-68
2023/02/10 00:39:31;;;;;;;;;;;21.20;47.70;;;;;;1607967;72;1141;-70
2023/02/10 00:41:33;;;;;;;;;;;21.20;47.80;;;;;;1594991;72;773;-68
2023/02/10 00:43:36;;;;;;;;;;;21.30;47.90;;;;;;1591735;72;766;-66
2023/02/10 00:45:38;;;;;;;;;;;21.20;47.80;;;;;;1606741;72;1908;-67
2023/02/10 00:47:40;;;;;;;;;;;21.20;47.80;;;;;;1605319;72;728;-67
2023/02/10 00:49:41;;;;;;;;;;;21.20;47.80;;;;;;1598178;72;1142;-65
2023/02/10 00:51:43;;;;;;;;;;;21.20;47.80;;;;;;1594107;72;785;-67
2023/02/10 00:53:45;;;;;;;;;;;21.20;47.80;;;;;;1605903;74;735;-66
2023/02/10 00:55:47;;;;;;;;;;;21.20;47.80;;;;;;1606416;72;803;-67
2023/02/10 00:57:49;;;;;;;;;;;21.20;47.80;;;;;;1596932;72;716;-69
2023/02/10 00:59:51;;;;;;;;;;;21.30;48.10;;;;;;1614016;72;1059;-68
2023/02/10 01:01:53;;;;;;;;;;;21.20;47.90;;;;;;1601124;72;798;-67
2023/02/10 01:03:55;;;;;;;;;;;21.30;48.10;;;;;;1599838;73;793;-68
2023/02/10 01:05:56;;;;;;;;;;;21.20;47.90;;;;;;1606731;72;1948;-66
2023/02/10 01:07:58;;;;;;;;;;;21.20;48.00;;;;;;1591070;72;749;-68
2023/02/10 01:10:00;;;;;;;;;;;21.30;48.10;;;;;;1593403;71;2066;-65
2023/02/10 01:12:02;;;;;;;;;;;21.30;48.10;;;;;;1555418;75;726;-66
2023/02/10 01:14:04;;;;;;;;;;;21.20;48.10;;;;;;1560213;75;735;-65
2023/02/10 01:16:09;;;;;;;;;;;21.30;48.10;;;;;;1558771;75;673;-64
2023/02/10 01:18:10;;;;;;;;;;;21.20;47.90;;;;;;1564496;75;1676;-64
2023/02/10 01:20:12;;;;;;;;;;;21.20;47.90;;;;;;1558748;75;1290;-65
2023/02/10 01:22:14;;;;;;;;;;;21.30;48.10;;;;;;1557367;75;680;-63
2023/02/10 01:24:16;;;;;;;;;;;21.30;48.20;;;;;;1549557;75;683;-63
2023/02/10 01:26:18;;;;;;;;;;;21.20;47.90;;;;;;1558220;75;1923;-64
2023/02/10 01:28:19;;;;;;;;;;;21.30;48.00;;;;;;1562786;75;1343;-65
2023/02/10 01:30:21;;;;;;;;;;;21.30;48.00;;;;;;1546672;75;1252;-64
2023/02/10 01:32:23;;;;;;;;;;;21.30;48.00;;;;;;1561276;75;634;-64
2023/02/10 01:34:26;;;;;;;;;;;21.30;48.00;;;;;;1551490;75;705;-63
2023/02/10 01:36:28;;;;;;;;;;;21.30;47.90;;;;;;1558882;75;710;-67
2023/02/10 01:38:30;;;;;;;;;;;21.30;47.90;;;;;;1548717;75;747;-63
2023/02/10 01:40:32;;;;;;;;;;;21.20;47.70;;;;;;1550312;75;1233;-65
2023/02/10 01:42:35;;;;;;;;;;;21.30;47.80;;;;;;1567926;75;795;-65
2023/02/10 01:44:38;;;;;;;;;;;21.30;47.80;;;;;;1552905;75;1912;-64
2023/02/10 01:46:40;;;;;;;;;;;21.30;47.90;;;;;;1555364;75;724;-65
2023/02/10 01:48:42;;;;;;;;;;;21.30;48.00;;;;;;1565379;75;727;-64
2023/02/10 01:50:48;;;;;;;;;;;21.30;47.90;;;;;;1564846;75;1128;-64
2023/02/10 01:52:50;;;;;;;;;;;21.30;47.90;;;;;;1555365;75;693;-64
2023/02/10 01:54:56;;;;;;;;;;;21.20;47.90;;;;;;1557313;75;730;-64
2023/02/10 01:56:58;;;;;;;;;;;21.30;47.90;;;;;;1548094;75;698;-65
2023/02/10 01:59:00;;;;;;;;;;;21.20;47.80;;;;;;1550452;75;706;-65
2023/02/10 02:01:02;;;;;;;;;;;21.30;47.90;;;;;;1555773;75;1122;-69
2023/02/10 02:03:05;;;;;;;;;;;21.30;47.90;;;;;;1550583;75;735;-66
2023/02/10 02:05:07;;;;;;;;;;;21.20;47.80;;;;;;1555057;75;1944;-67
2023/02/10 02:07:09;;;;;;;;;;;21.30;48.00;;;;;;1558813;75;811;-65
2023/02/10 02:09:11;;;;;;;;;;;21.20;48.00;;;;;;1557110;75;1191;-66
2023/02/10 02:11:21;;;;;;;;;;;21.20;47.90;;;;;;1562185;75;747;-66
2023/02/10 02:13:27;;;;;;;;;;;21.20;47.90;;;;;;1563841;75;676;-64
2023/02/10 02:15:33;;;;;;;;;;;21.20;47.90;;;;;;1549339;75;641;-64
2023/02/10 02:17:37;;;;;;;;;;;21.20;48.10;;;;;;1556943;75;1135;-64
2023/02/10 02:19:40;;;;;;;;;;;21.30;48.10;;;;;;1554983;75;1101;-65
2023/02/10 02:21:44;;;;;;;;;;;21.20;48.00;;;;;;1543902;75;1127;-64
2023/02/10 02:24:04;;;;;;;;;;;21.20;48.10;;;;;;1547746;75;1455;-63
2023/02/10 02:26:07;;;;;;;;;;;21.30;48.30;;;;;;1562616;75;1923;-65
2023/02/10 02:28:20;;;;;;;;;;;21.20;48.30;;;;;;1566005;75;779;-64
2023/02/10 02:30:33;;;;;;;;;;;21.10;48.50;;;;;;1545656;75;1157;-68
2023/02/10 02:32:36;;;;;;;;;;;21.10;48.50;;;;;;1555545;75;1128;-65
2023/02/10 02:34:42;;;;;;;;;;;21.10;48.40;;;;;;1562799;75;799;-66
2023/02/10 02:36:49;;;;;;;;;;;21.10;48.50;;;;;;1554200;75;661;-65
2023/02/10 02:38:51;;;;;;;;;;;21.20;48.40;;;;;;1564493;75;744;-63
2023/02/10 02:40:53;;;;;;;;;;;21.20;48.40;;;;;;1555428;75;1109;-67
2023/02/10 02:42:54;;;;;;;;;;;21.20;48.40;;;;;;1547009;75;584;-63
2023/02/10 02:44:58;;;;;;;;;;;21.20;48.40;;;;;;1546539;75;1936;-67
2023/02/10 02:47:01;;;;;;;;;;;21.20;48.30;;;;;;1559930;75;734;-66
2023/02/10 02:49:21;;;;;;;;;;;21.30;48.40;;;;;;1553350;75;658;-64
2023/02/10 02:51:24;;;;;;;;;;;21.30;48.40;;;;;;1555371;75;707;-64
2023/02/10 02:53:31;;;;;;;;;;;21.30;48.40;;;;;;1559452;75;712;-63
2023/02/10 02:55:35;;;;;;;;;;;21.30;48.40;;;;;;1561060;75;1191;-62
2023/02/10 02:57:41;;;;;;;;;;;21.20;48.30;;;;;;1556062;75;1138;-64
2023/02/10 02:59:48;;;;;;;;;;;21.10;48.30;;;;;;1560680;75;1188;-64
2023/02/10 03:02:00;;;;;;;;;;;21.20;48.40;;;;;;1560982;75;1071;-64
2023/02/10 03:04:02;;;;;;;;;;;21.10;48.40;;;;;;1560595;75;1586;-64
2023/02/10 03:06:04;;;;;;;;;;;21.20;48.50;;;;;;1560732;75;1947;-63
2023/02/10 03:08:06;;;;;;;;;;;21.20;48.60;;;;;;1562060;75;1145;-63
2023/02/10 03:10:08;;;;;;;;;;;21.20;48.60;;;;;;1558591;75;1280;-66
2023/02/10 03:12:12;;;;;;;;;;;21.20;48.40;;;;;;1557937;75;1256;-64
2023/02/10 03:14:13;;;;;;;;;;;21.10;48.40;;;;;;1563616;75;1482;-68
2023/02/10 03:16:15;;;;;;;;;;;21.20;48.30;;;;;;1551060;75;1191;-64
2023/02/10 03:18:17;;;;;;;;;;;21.30;48.40;;;;;;1557768;75;1245;-64
2023/02/10 03:20:19;;;;;;;;;;;21.20;48.40;;;;;;1559206;75;1470;-65
2023/02/10 03:22:21;;;;;;;;;;;21.30;48.40;;;;;;1557398;75;627;-65
2023/02/10 03:24:23;;;;;;;;;;;21.20;48.40;;;;;;1559954;75;1351;-65
2023/02/10 03:26:25;;;;;;;;;;;21.20;48.30;;;;;;1559121;75;1931;-66
2023/02/10 03:28:27;;;;;;;;;;;21.30;48.50;;;;;;1554900;75;1215;-68
2023/02/10 03:30:29;;;;;;;;;;;21.30;48.60;;;;;;1556565;75;1144;-67
2023/02/10 03:32:31;;;;;;;;;;;21.20;48.50;;;;;;1557763;75;1032;-65
2023/02/10 03:34:33;;;;;;;;;;;21.20;48.50;;;;;;1555605;75;1069;-66
2023/02/10 03:36:34;;;;;;;;;;;21.20;48.50;;;;;;1555835;75;1180;-67
2023/02/10 03:38:36;;;;;;;;;;;21.20;48.50;;;;;;1553601;75;1244;-65
2023/02/10 03:40:38;;;;;;;;;;;21.20;48.60;;;;;;1559862;73;1327;-65
2023/02/10 03:42:40;;;;;;;;;;;21.20;48.60;;;;;;1560152;75;1205;-66
2023/02/10 03:44:42;;;;;;;;;;;21.30;48.70;;;;;;1551289;75;1231;-65
2023/02/10 03:46:44;;;;;;;;;;;21.20;48.50;;;;;;1556636;75;1908;-68
2023/02/10 03:48:46;;;;;;;;;;;21.30;48.70;;;;;;1556591;75;624;-65
2023/02/10 03:50:48;;;;;;;;;;;21.20;48.40;;;;;;1554582;75;1128;-66
2023/02/10 03:52:50;;;;;;;;;;;21.30;48.50;;;;;;1557862;75;719;-66
2023/02/10 03:54:52;;;;;;;;;;;21.20;48.40;;;;;;1566416;75;795;-66
2023/02/10 03:56:54;;;;;;;;;;;21.30;48.60;;;;;;1557188;75;620;-66
2023/02/10 03:58:55;;;;;;;;;;;21.30;48.40;;;;;;1559376;75;669;-66
2023/02/10 04:00:57;;;;;;;;;;;21.40;48.40;;;;;;1557729;75;1133;-67
2023/02/10 04:02:59;;;;;;;;;;;21.30;48.40;;;;;;1558455;75;714;-65
2023/02/10 04:05:01;;;;;;;;;;;21.30;48.40;;;;;;1559949;75;675;-65
2023/02/10 04:07:03;;;;;;;;;;;21.20;48.40;;;;;;1556749;75;1943;-67
2023/02/10 04:09:05;;;;;;;;;;;21.20;48.40;;;;;;1564232;75;656;-66
2023/02/10 04:11:09;;;;;;;;;;;21.20;48.40;;;;;;1556082;75;1176;-66
2023/02/10 04:13:10;;;;;;;;;;;21.20;48.40;;;;;;1548350;75;640;-68
2023/02/10 04:15:12;;;;;;;;;;;21.20;48.40;;;;;;1555835;75;800;-64
2023/02/10 04:17:14;;;;;;;;;;;21.30;48.70;;;;;;1556285;75;1455;-64
2023/02/10 04:19:16;;;;;;;;;;;21.30;48.60;;;;;;1550763;75;1190;-64
2023/02/10 04:21:18;;;;;;;;;;;21.30;48.60;;;;;;1555126;75;761;-64
2023/02/10 04:23:20;;;;;;;;;;;21.20;48.50;;;;;;1557324;75;730;-64
2023/02/10 04:25:22;;;;;;;;;;;21.30;48.60;;;;;;1560191;75;727;-65
2023/02/10 04:27:24;;;;;;;;;;;21.20;48.50;;;;;;1560080;75;1932;-65
2023/02/10 04:29:25;;;;;;;;;;;21.20;48.60;;;;;;1563548;75;1149;-68
2023/02/10 04:31:27;;;;;;;;;;;21.20;48.70;;;;;;1559851;75;788;-65
2023/02/10 04:33:29;;;;;;;;;;;21.30;48.90;;;;;;1564107;75;800;-66
2023/02/10 04:35:31;;;;;;;;;;;21.30;48.90;;;;;;1558766;75;723;-65
2023/02/10 04:37:33;;;;;;;;;;;21.30;48.90;;;;;;1557019;75;699;-65
2023/02/10 04:39:35;;;;;;;;;;;21.30;48.80;;;;;;1559153;75;1143;-64
2023/02/10 04:41:37;;;;;;;;;;;21.30;48.90;;;;;;1564458;75;565;-65
2023/02/10 04:43:39;;;;;;;;;;;21.30;48.80;;;;;;1562667;75;633;-67
2023/02/10 04:45:41;;;;;;;;;;;21.30;48.80;;;;;;1562251;75;1928;-68
2023/02/10 04:47:43;;;;;;;;;;;21.30;48.80;;;;;;1556700;75;700;-66
2023/02/10 04:49:45;;;;;;;;;;;21.50;48.90;;;;;;1556822;75;1177;-62
2023/02/10 04:51:47;;;;;;;;;;;21.30;48.90;;;;;;1564969;75;664;-65
2023/02/10 04:53:49;;;;;;;;;;;21.20;48.80;;;;;;1561001;75;761;-65
2023/02/10 04:55:51;;;;;;;;;;;21.30;48.80;;;;;;1559473;75;788;-65
2023/02/10 04:57:53;;;;;;;;;;;21.20;48.70;;;;;;1562707;75;705;-69
2023/02/10 04:59:54;;;;;;;;;;;21.40;48.80;;;;;;1561857;75;1098;-65
2023/02/10 05:01:56;;;;;;;;;;;21.30;48.90;;;;;;1564988;75;668;-65
2023/02/10 05:03:58;;;;;;;;;;;21.30;48.80;;;;;;1560157;75;800;-63
2023/02/10 05:06:02;;;;;;;;;;;21.30;48.70;;;;;;1567346;75;1935;-65
2023/02/10 05:08:04;;;;;;;;;;;21.40;48.60;;;;;;1558808;75;2224;-64
2023/02/10 05:10:06;;;;;;;;;;;21.30;48.60;;;;;;1558001;75;1172;-70
2023/02/10 05:12:08;;;;;;;;;;;21.30;48.60;;;;;;1561665;75;781;-66
2023/02/10 05:14:10;;;;;;;;;;;21.40;48.60;;;;;;1561971;75;705;-69
2023/02/10 05:16:12;;;;;;;;;;;21.30;48.60;;;;;;1560589;75;719;-66
2023/02/10 05:18:14;;;;;;;;;;;21.40;48.60;;;;;;1555008;75;1560;-67
2023/02/10 05:20:15;;;;;;;;;;;21.30;48.60;;;;;;1566212;73;1155;-67
2023/02/10 05:22:17;;;;;;;;;;;21.30;48.60;;;;;;1562282;75;745;-68
2023/02/10 05:24:19;;;;;;;;;;;21.30;48.60;;;;;;1557982;75;639;-67
2023/02/10 05:26:21;;;;;;;;;;;21.30;48.70;;;;;;1555778;75;1930;-66
2023/02/10 05:28:23;;;;;;;;;;;21.30;48.70;;;;;;1561060;75;687;-69
2023/02/10 05:30:25;;;;;;;;;;;21.20;48.50;;;;;;1561874;75;1211;-67
2023/02/10 05:32:27;;;;;;;;;;;21.30;48.60;;;;;;1563173;75;733;-70
2023/02/10 05:34:28;;;;;;;;;;;21.20;48.70;;;;;;1563377;75;633;-65
2023/02/10 05:36:30;;;;;;;;;;;21.20;48.90;;;;;;1561460;75;790;-65
2023/02/10 05:38:32;;;;;;;;;;;21.20;49.10;;;;;;1559073;75;755;-64
2023/02/10 05:40:34;;;;;;;;;;;21.30;49.40;;;;;;1559989;75;1137;-64
2023/02/10 05:42:36;;;;;;;;;;;21.10;49.20;;;;;;1561307;75;742;-65
2023/02/10 05:44:38;;;;;;;;;;;21.10;49.40;;;;;;1556335;75;729;-64
2023/02/10 05:46:40;;;;;;;;;;;21.10;49.30;;;;;;1560821;75;1923;-64
2023/02/10 05:48:42;;;;;;;;;;;21.10;49.30;;;;;;1551212;75;769;-65
2023/02/10 05:50:44;;;;;;;;;;;21.20;49.40;;;;;;1561437;75;1141;-63
2023/02/10 05:52:45;;;;;;;;;;;21.10;49.30;;;;;;1553116;75;714;-63
2023/02/10 05:54:47;;;;;;;;;;;21.20;49.30;;;;;;1552057;75;755;-64
2023/02/10 05:56:50;;;;;;;;;;;21.20;49.30;;;;;;1553535;75;717;-64
2023/02/10 05:58:52;;;;;;;;;;;21.20;49.30;;;;;;1562274;75;835;-63
2023/02/10 06:00:54;;;;;;;;;;;21.20;49.20;;;;;;1563132;75;1111;-64
2023/02/10 06:02:55;;;;;;;;;;;21.20;49.40;;;;;;1562238;75;744;-64
2023/02/10 06:04:57;;;;;;;;;;;21.10;49.40;;;;;;1562556;75;644;-65
2023/02/10 06:06:59;;;;;;;;;;;21.20;49.30;;;;;;1554957;75;1932;-71
2023/02/10 06:09:01;;;;;;;;;;;21.10;49.40;;;;;;1561026;75;699;-68
2023/02/10 06:11:03;;;;;;;;;;;21.20;49.50;;;;;;1561178;75;1132;-70
2023/02/10 06:13:05;;;;;;;;;;;21.10;49.60;;;;;;1555266;75;1413;-68
2023/02/10 06:15:07;;;;;;;;;;;21.10;49.90;;;;;;1560131;75;679;-69
2023/02/10 06:17:09;;;;;;;;;;;21.10;49.90;;;;;;1565880;75;714;-64
2023/02/10 06:19:11;;;;;;;;;;;21.10;50.00;;;;;;1564696;75;1184;-65
2023/02/10 06:21:13;;;;;;;;;;;21.00;50.00;;;;;;1556567;75;762;-68
2023/02/10 06:23:14;;;;;;;;;;;21.10;50.30;;;;;;1559191;75;770;-72
2023/02/10 06:25:16;;;;;;;;;;;21.00;50.60;;;;;;1563148;75;708;-67
2023/02/10 06:27:18;;;;;;;;;;;21.00;51.00;;;;;;1562459;75;1947;-68
2023/02/10 06:29:20;;;;;;;;;;;21.00;51.10;;;;;;1559177;75;1149;-64
2023/02/10 06:31:23;;;;;;;;;;;21.00;51.30;;;;;;1560184;75;747;-68
2023/02/10 06:33:25;;;;;;;;;;;20.90;51.40;;;;;;1557267;75;1040;-68
2023/02/10 06:35:27;;;;;;;;;;;20.90;51.40;;;;;;1562990;75;757;-66
2023/02/10 06:37:30;;;;;;;;;;;20.90;51.10;;;;;;1561647;75;697;-64
2023/02/10 06:39:31;;;;;;;;;;;20.90;51.30;;;;;;1559563;75;1137;-63
2023/02/10 06:41:33;;;;;;;;;;;20.80;51.30;;;;;;1555923;75;741;-69
2023/02/10 06:43:35;;;;;;;;;;;20.90;51.40;;;;;;1558503;75;765;-69
2023/02/10 06:45:37;;;;;;;;;;;21.10;51.20;;;;;;1558251;75;792;-69
2023/02/10 06:47:39;;;;;;;;;;;21.10;50.80;;;;;;1562747;75;1911;-69
2023/02/10 06:49:41;;;;;;;;;;;21.20;50.50;;;;;;1563238;75;1144;-68
2023/02/10 06:51:43;;;;;;;;;;;21.20;50.20;;;;;;1561627;75;679;-68
2023/02/10 06:53:45;;;;;;;;;;;21.30;50.20;;;;;;1560909;75;705;-72
2023/02/10 06:55:47;;;;;;;;;;;21.30;50.10;;;;;;1559982;75;756;-68
2023/02/10 06:57:49;;;;;;;;;;;21.40;49.90;;;;;;1561972;75;789;-68
2023/02/10 06:59:52;;;;;;;;;;;21.30;49.70;;;;;;1564139;75;1171;-69
2023/02/10 07:02:00;;;;;;;;;;;21.30;49.70;;;;;;1553751;75;624;-69
2023/02/10 07:03:58;;;;;;;;;;;21.40;49.50;;;;;;1557018;75;1113;-71
2023/02/10 07:05:59;;;;;;;;;;;21.40;49.40;;;;;;1560494;75;736;-69
2023/02/10 07:08:03;;;;;;;;;;;21.40;49.30;;;;;;1557548;75;1921;-69
2023/02/10 07:10:24;;;;;;;;;;;21.40;49.40;;;;;;1542645;75;1449;-70
2023/02/10 07:12:26;;;;;;;;;;;21.40;49.30;;;;;;1555032;75;710;-68
2023/02/10 07:14:28;;;;;;;;;;;21.30;49.20;;;;;;1562942;75;909;-69
2023/02/10 07:16:30;;;;;;;;;;;21.30;49.20;;;;;;1568400;75;713;-67
2023/02/10 07:18:32;;;;;;;;;;;21.30;49.10;;;;;;1566968;75;759;-69
2023/02/10 07:20:34;;;;;;;;;;;21.30;48.90;;;;;;1573574;75;1208;-69
2023/02/10 07:22:36;;;;;;;;;;;21.30;48.80;;;;;;1576436;75;722;-68
2023/02/10 07:24:38;;;;;;;;;;;21.30;48.80;;;;;;1575832;75;610;-65
2023/02/10 07:26:39;;;;;;;;;;;21.30;48.50;;;;;;1579254;75;1929;-69
2023/02/10 07:28:42;;;;;;;;;;;21.30;48.60;;;;;;1572476;75;785;-67
2023/02/10 07:30:44;;;;;;;;;;;21.20;48.70;;;;;;1574029;75;1148;-67
2023/02/10 07:32:46;;;;;;;;;;;21.20;48.80;;;;;;1573466;75;781;-65
2023/02/10 07:34:49;;;;;;;;;;;21.20;48.70;;;;;;1574144;75;712;-66
2023/02/10 07:36:53;;;;;;;;;;;21.20;48.60;;;;;;1575002;75;751;-65
2023/02/10 07:38:55;;;;;;;;;;;21.30;48.50;;;;;;1582526;75;1673;-66
2023/02/10 07:40:57;;;;;;;;;;;21.20;48.40;;;;;;1562885;75;1161;-67
2023/02/10 07:42:58;;;;;;;;;;;21.20;48.40;;;;;;1566615;75;716;-67
2023/02/10 07:45:01;;;;;;;;;;;21.00;48.50;;;;;;1558778;75;701;-67
2023/02/10 07:47:03;;;;;;;;;;;21.00;48.60;;;;;;1558663;75;1904;-67
2023/02/10 07:49:05;;;;;;;;;;;21.00;48.70;;;;;;1561515;75;735;-69
2023/02/10 07:51:07;;;;;;;;;;;21.00;48.80;;;;;;1565732;75;1153;-64
2023/02/10 07:53:09;;;;;;;;;;;21.00;48.70;;;;;;1559922;75;769;-66
2023/02/10 07:55:10;;;;;;;;;;;21.00;48.70;;;;;;1560010;75;733;-66
2023/02/10 07:57:12;;;;;;;;;;;21.00;48.80;;;;;;1570011;75;777;-66
2023/02/10 07:59:14;;;;;;;;;;;21.00;48.80;;;;;;1571540;75;676;-66
2023/02/10 08:01:16;;;;;;;;;;;21.00;48.90;;;;;;1572172;75;1141;-67
2023/02/10 08:03:18;;;;;;;;;;;21.00;48.90;;;;;;1574359;75;784;-67
2023/02/10 08:05:21;;;;;;;;;;;20.90;48.90;;;;;;1563724;75;1513;-66
2023/02/10 08:07:23;;;;;;;;;;;21.00;48.70;;;;;;1572320;75;1899;-67
2023/02/10 08:09:25;;;;;;;;;;;21.00;48.60;;;;;;1577207;75;722;-67
2023/02/10 08:11:27;;;;;;;;;;;21.10;48.70;;;;;;1575890;75;1178;-67
2023/02/10 08:13:29;;;;;;;;;;;21.10;48.60;;;;;;1570265;75;718;-67
2023/02/10 08:15:31;;;;;;;;;;;21.00;48.50;;;;;;1571919;75;794;-66
2023/02/10 08:17:33;;;;;;;;;;;21.00;48.40;;;;;;1563342;75;641;-67
2023/02/10 08:19:36;;;;;;;;;;;21.20;48.50;;;;;;1563967;75;729;-66
2023/02/10 08:21:38;;;;;;;;;;;21.10;48.50;;;;;;1568082;75;1154;-67
2023/02/10 08:23:39;;;;;;;;;;;21.10;48.50;;;;;;1563078;75;738;-66
2023/02/10 08:25:41;;;;;;;;;;;21.00;48.50;;;;;;1567188;75;834;-66
2023/02/10 08:27:43;;;;;;;;;;;21.00;48.40;;;;;;1563395;75;1938;-66
2023/02/10 08:29:45;;;;;;;;;;;21.10;48.40;;;;;;1574208;75;759;-67
2023/02/10 08:31:49;;;;;;;;;;;21.20;48.40;;;;;;1572112;75;1127;-67
2023/02/10 08:33:50;;;;;;;;;;;21.10;48.40;;;;;;1551511;75;2293;-67
2023/02/10 08:35:52;;;;;;;;;;;21.20;48.20;;;;;;1575130;75;870;-68
2023/02/10 08:37:54;;;;;;;;;;;21.10;48.30;;;;;;1579450;75;735;-66
2023/02/10 08:39:56;;;;;;;;;;;21.10;48.20;;;;;;1581800;75;801;-66
2023/02/10 08:41:58;;;;;;;;;;;21.20;48.10;;;;;;1563146;75;1189;-66
2023/02/10 08:44:00;;;;;;;;;;;21.20;48.10;;;;;;1563516;75;781;-66
2023/02/10 08:46:02;;;;;;;;;;;21.10;48.00;;;;;;1562542;75;944;-67
2023/02/10 08:48:04;;;;;;;;;;;21.20;48.10;;;;;;1563392;75;1946;-67
2023/02/10 08:50:06;;;;;;;;;;;21.10;48.00;;;;;;1558995;75;1162;-66
2023/02/10 08:52:07;;;;;;;;;;;21.10;48.10;;;;;;1575152;75;747;-66
2023/02/10 08:54:09;;;;;;;;;;;21.10;48.10;;;;;;1565322;75;682;-66
2023/02/10 08:56:13;;;;;;;;;;;21.10;48.10;;;;;;1563241;75;782;-66
2023/02/10 08:58:15;;;;;;;;;;;21.10;48.10;;;;;;1563610;75;721;-66
2023/02/10 09:00:17;;;;;;;;;;;21.10;48.10;;;;;;1577277;75;1115;-67
2023/02/10 09:02:19;;;;;;;;;;;21.10;48.10;;;;;;1565483;75;1587;-67
2023/02/10 09:04:21;;;;;;;;;;;21.00;48.00;;;;;;1568113;75;756;-66
2023/02/10 09:06:25;;;;;;;;;;;21.00;47.90;;;;;;1570574;75;652;-68
2023/02/10 09:08:26;;;;;;;;;;;21.10;48.10;;;;;;1571140;75;1925;-67
2023/02/10 09:10:28;;;;;;;;;;;21.00;48.00;;;;;;1579012;75;1241;-66
2023/02/10 09:12:30;;;;;;;;;;;21.00;48.10;;;;;;1571784;75;777;-66
2023/02/10 09:14:32;;;;;;;;;;;21.00;48.40;;;;;;1559299;75;740;-66
2023/02/10 09:16:34;;;;;;;;;;;20.90;48.30;;;;;;1572262;75;793;-68
2023/02/10 09:18:36;;;;;;;;;;;20.80;48.30;;;;;;1566636;75;815;-66
2023/02/10 09:20:38;;;;;;;;;;;20.80;48.60;;;;;;1567077;75;1150;-64
2023/02/10 09:22:40;;;;;;;;;;;20.80;48.60;;;;;;1563003;75;783;-65
2023/02/10 09:24:46;;;;;;;;;;;20.90;48.90;;;;;;1567759;75;784;-66
2023/02/10 09:26:45;;;;;;;;;;;20.80;48.90;;;;;;1562860;75;1653;-65
2023/02/10 09:28:48;;;;;;;;;;;20.80;48.80;;;;;;1569807;75;1942;-67
2023/02/10 09:30:50;;;;;;;;;;;20.90;48.70;;;;;;1564147;75;1156;-67
2023/02/10 09:32:51;;;;;;;;;;;20.90;48.70;;;;;;1562419;75;626;-66
2023/02/10 09:34:53;;;;;;;;;;;20.90;48.60;;;;;;1566274;75;790;-67
2023/02/10 09:36:57;;;;;;;;;;;20.80;48.60;;;;;;1568666;75;754;-68
2023/02/10 09:38:59;;;;;;;;;;;20.80;48.70;;;;;;1569045;75;737;-66
2023/02/10 09:41:08;;;;;;;;;;;20.70;48.80;;;;;;1563032;75;1183;-66
2023/02/10 09:43:14;;;;;;;;;;;20.70;49.10;;;;;;1562700;75;1609;-66
2023/02/10 09:45:18;;;;;;;;;;;20.60;49.10;;;;;;1576919;75;1830;-67
2023/02/10 09:47:30;;;;;;;;;;;20.70;49.30;;;;;;1568932;75;713;-66
2023/02/10 09:49:33;;;;;;;;;;;20.60;49.20;;;;;;1561656;75;1833;-65
2023/02/10 09:51:37;;;;;;;;;;;20.60;49.00;;;;;;1571298;75;1127;-67
2023/02/10 09:53:39;;;;;;;;;;;20.70;49.20;;;;;;1569893;75;1993;-65
2023/02/10 09:55:45;;;;;;;;;;;20.60;48.80;;;;;;1580201;75;710;-63
2023/02/10 09:57:48;;;;;;;;;;;20.60;48.60;;;;;;1563593;75;1534;-64
2023/02/10 09:59:51;;;;;;;;;;;20.60;48.40;;;;;;1572113;75;1840;-65
2023/02/10 10:01:54;;;;;;;;;;;20.60;48.30;;;;;;1563300;75;1090;-66
2023/02/10 10:04:08;;;;;;;;;;;20.60;48.20;;;;;;1561228;75;1856;-66
2023/02/10 10:06:15;;;;;;;;;;;20.60;48.10;;;;;;1560645;75;1242;-64
2023/02/10 10:08:21;;;;;;;;;;;20.50;48.10;;;;;;1568386;75;1915;-63
2023/02/10 10:10:28;;;;;;;;;;;20.60;48.00;;;;;;1570303;75;1161;-65
2023/02/10 10:12:30;;;;;;;;;;;20.60;47.90;;;;;;1559921;75;1243;-64
2023/02/10 10:14:38;;;;;;;;;;;20.50;47.70;;;;;;1570086;75;916;-65
2023/02/10 10:16:42;;;;;;;;;;;20.60;49.00;;;;;;1570574;75;731;-65
2023/02/10 10:19:03;;;;;;;;;;;20.70;50.80;;;;;;1579508;75;824;-70
2023/02/10 10:21:07;;;;;;;;;;;20.70;50.20;;;;;;1577301;75;1192;-67
2023/02/10 10:23:27;;;;;;;;;;;20.60;49.90;;;;;;1566476;75;1793;-67
2023/02/10 10:25:36;;;;;;;;;;;20.70;50.20;;;;;;1558691;75;695;-67
2023/02/10 10:27:49;;;;;;;;;;;20.70;50.10;;;;;;1552558;75;1867;-67
2023/02/10 10:29:55;;;;;;;;;;;20.70;50.00;;;;;;1570187;75;1930;-66
2023/02/10 10:31:59;;;;;;;;;;;20.70;50.00;;;;;;1568328;75;1364;-67
2023/02/10 10:34:05;;;;;;;;;;;20.70;49.80;;;;;;1572302;75;829;-64
2023/02/10 10:36:09;;;;;;;;;;;20.70;49.70;;;;;;1567220;75;1670;-64
2023/02/10 10:38:14;;;;;;;;;;;20.60;49.30;;;;;;1567412;75;1540;-65
2023/02/10 10:40:18;;;;;;;;;;;20.60;49.10;;;;;;1575136;75;1102;-62
2023/02/10 10:42:30;;;;;;;;;;;20.60;48.40;;;;;;1571084;75;1783;-62
2023/02/10 10:44:35;;;;;;;;;;;20.60;49.30;;;;;;1561051;75;1800;-69
2023/02/10 10:46:37;;;;;;;;;;;20.70;49.60;;;;;;1580339;75;1681;-70
2023/02/10 10:48:40;;;;;;;;;;;20.80;49.90;;;;;;1569143;75;1956;-71
2023/02/10 10:50:42;;;;;;;;;;;20.90;49.80;;;;;;1565207;75;1157;-69
2023/02/10 10:52:45;;;;;;;;;;;21.00;49.50;;;;;;1564391;75;669;-69
2023/02/10 10:54:46;;;;;;;;;;;21.10;49.30;;;;;;1564315;75;1634;-70
2023/02/10 10:56:52;;;;;;;;;;;21.10;49.00;;;;;;1563664;75;718;-70
2023/02/10 10:58:53;;;;;;;;;;;21.30;49.00;;;;;;1568908;75;701;-70
2023/02/10 11:00:56;;;;;;;;;;;21.30;48.80;;;;;;1562744;75;1141;-70
2023/02/10 11:03:05;;;;;;;;;;;21.40;48.60;;;;;;1570961;75;672;-67
2023/02/10 11:05:09;;;;;;;;;;;21.40;48.80;;;;;;1563957;75;718;-68
2023/02/10 11:07:12;;;;;;;;;;;21.30;49.60;;;;;;1560655;75;1070;-73
2023/02/10 11:09:16;;;;;;;;;;;21.20;49.70;;;;;;1568964;75;1958;-71
2023/02/10 11:11:18;;;;;;;;;;;21.20;49.70;;;;;;1572705;75;1964;-70
2023/02/10 11:13:20;;;;;;;;;;;21.20;49.40;;;;;;1566411;75;1339;-71
2023/02/10 11:15:23;;;;;;;;;;;21.30;49.30;;;;;;1569749;75;1457;-71
2023/02/10 11:17:26;;;;;;;;;;;21.40;49.10;;;;;;1570152;75;1549;-70
2023/02/10 11:19:29;;;;;;;;;;;21.40;48.80;;;;;;1568935;74;1488;-71
2023/02/10 11:21:35;;;;;;;;;;;21.50;48.70;;;;;;1571936;75;1444;-70
2023/02/10 11:23:38;;;;;;;;;;;21.50;48.50;;;;;;1564655;75;1525;-71
2023/02/10 11:25:40;;;;;;;;;;;21.50;48.40;;;;;;1566623;75;1536;-71
2023/02/10 11:27:44;;;;;;;;;;;21.60;48.30;;;;;;1566680;75;1328;-70
2023/02/10 11:29:52;;;;;;;;;;;21.60;48.20;;;;;;1573088;75;1926;-72
2023/02/10 11:31:54;;;;;;;;;;;21.60;48.20;;;;;;1572564;75;1201;-73
2023/02/10 11:34:01;;;;;;;;;;;21.60;48.10;;;;;;1572462;75;1376;-73
2023/02/10 11:36:04;;;;;;;;;;;21.60;48.10;;;;;;1566252;75;1318;-73
2023/02/10 11:38:07;;;;;;;;;;;21.60;48.00;;;;;;1568168;75;1820;-72
2023/02/10 11:40:19;;;;;;;;;;;21.70;48.00;;;;;;1567963;75;1479;-74
2023/02/10 11:42:22;;;;;;;;;;;21.70;47.90;;;;;;1572166;75;1572;-73
2023/02/10 11:44:28;;;;;;;;;;;21.60;47.90;;;;;;1569116;75;1957;-73
2023/02/10 11:46:31;;;;;;;;;;;21.70;47.80;;;;;;1565181;75;1288;-74
2023/02/10 11:48:33;;;;;;;;;;;21.70;47.80;;;;;;1562352;75;1919;-72
2023/02/10 11:50:36;;;;;;;;;;;21.60;47.70;;;;;;1561359;75;1252;-72
2023/02/10 11:52:38;;;;;;;;;;;21.60;47.60;;;;;;1562312;75;1458;-71
2023/02/10 11:54:40;;;;;;;;;;;21.70;47.70;;;;;;1568049;75;1156;-73
2023/02/10 11:59:08;;;;;;;;;;;21.70;47.60;;;;;;1573253;75;1665;-74
2023/02/10 12:01:12;;;;;;;;;;;21.60;47.60;;;;;;1570696;75;1268;-73
2023/02/10 12:03:15;;;;;;;;;;;21.60;47.60;;;;;;1561120;75;1972;-72
2023/02/10 12:05:22;;;;;;;;;;;21.60;47.60;;;;;;1563973;75;1812;-74
2023/02/10 12:07:25;;;;;;;;;;;21.70;47.70;;;;;;1565236;75;1813;-72
2023/02/10 12:09:29;;;;;;;;;;;21.60;47.60;;;;;;1568746;75;1926;-74
2023/02/10 12:11:44;;;;;;;;;;;21.70;47.60;;;;;;1575912;75;1315;-73
2023/02/10 12:13:48;;;;;;;;;;;21.70;47.60;;;;;;1559342;75;1479;-73